Time;durP1;ratioP1;P1;durP2;ratioP2;P2;SDS_P1;SDS_P2;PMS_P1;PMS_P2;Temp;Humidity;BMP_temperature;BMP_pressure;BME280_temperature;BME280_humidity;BME280_pressure;Samples;Min_cycle;Max_cycle;Signal;HPM_P1;HPM_P2
2021/05/14 00:00:32;;;;;;;12.23;7.65;;;;;;;;;;5071253;28;20063;-64
2021/05/14 00:02:58;;;;;;;13.77;8.70;;;;;;;;;;5090319;28;20032;-64
2021/05/14 00:05:24;;;;;;;12.30;8.20;;;;;;;;;;5086940;28;20035;-64
2021/05/14 00:07:51;;;;;;;11.75;7.60;;;;;;;;;;5089829;28;20513;-64
2021/05/14 00:10:18;;;;;;;13.00;8.20;;;;;;;;;;5089900;28;20035;-64
2021/05/14 00:12:44;;;;;;;14.68;8.98;;;;;;;;;;5085037;28;20032;-64
2021/05/14 00:15:10;;;;;;;15.20;8.95;;;;;;;;;;5090555;28;20027;-64
2021/05/14 00:17:36;;;;;;;13.30;8.60;;;;;;;;;;5089158;28;20448;-64
2021/05/14 00:20:06;;;;;;;17.63;9.40;;;;;;;;;;5090672;28;20048;-64
2021/05/14 00:22:32;;;;;;;16.40;9.73;;;;;;;;;;5089623;28;20271;-64
2021/05/14 00:24:58;;;;;;;15.35;8.52;;;;;;;;;;5090324;28;20404;-64
2021/05/14 00:27:24;;;;;;;14.05;9.00;;;;;;;;;;5089514;28;20043;-64
2021/05/14 00:29:50;;;;;;;14.45;9.18;;;;;;;;;;5089961;28;20024;-64
2021/05/14 00:32:16;;;;;;;16.40;9.32;;;;;;;;;;5072157;28;20040;-64
2021/05/14 00:34:42;;;;;;;16.25;9.25;;;;;;;;;;5072614;28;20126;-64
2021/05/14 00:37:08;;;;;;;16.15;9.23;;;;;;;;;;5089261;28;20103;-64
2021/05/14 00:39:34;;;;;;;16.80;9.75;;;;;;;;;;5089387;28;20537;-64
2021/05/14 00:42:00;;;;;;;16.58;10.50;;;;;;;;;;5081200;28;20544;-64
2021/05/14 00:44:34;;;;;;;15.55;10.10;;;;;;;;;;5090920;28;20035;-64
2021/05/14 00:47:02;;;;;;;14.75;9.15;;;;;;;;;;5080291;28;20028;-64
2021/05/14 00:49:28;;;;;;;18.40;10.60;;;;;;;;;;5080535;28;20070;-64
2021/05/14 00:51:57;;;;;;;18.83;9.25;;;;;;;;;;5090078;28;20070;-64
2021/05/14 00:54:24;;;;;;;16.92;10.20;;;;;;;;;;5090392;28;20012;-64
2021/05/14 00:56:50;;;;;;;15.05;9.75;;;;;;;;;;5086951;28;20036;-64
2021/05/14 00:59:16;;;;;;;14.88;10.30;;;;;;;;;;5070750;28;20107;-64
2021/05/14 01:01:42;;;;;;;17.52;10.80;;;;;;;;;;5090251;28;20052;-64
2021/05/14 01:04:08;;;;;;;18.38;12.13;;;;;;;;;;5090763;28;20038;-64
2021/05/14 01:06:34;;;;;;;19.25;12.05;;;;;;;;;;5079353;28;20032;-64
2021/05/14 01:09:01;;;;;;;23.63;12.32;;;;;;;;;;5069961;28;20024;-64
2021/05/14 01:11:27;;;;;;;23.50;14.80;;;;;;;;;;5088923;28;20054;-64
2021/05/14 01:13:56;;;;;;;31.00;15.40;;;;;;;;;;5087194;28;20035;-64
2021/05/14 01:16:22;;;;;;;23.00;13.38;;;;;;;;;;5093032;28;20082;-64
2021/05/14 01:18:48;;;;;;;23.13;13.27;;;;;;;;;;5092478;28;20044;-64
2021/05/14 01:21:14;;;;;;;25.15;13.02;;;;;;;;;;5074794;28;20423;-64
2021/05/14 01:23:41;;;;;;;20.42;12.65;;;;;;;;;;5074629;28;20032;-64
2021/05/14 01:26:14;;;;;;;18.35;12.63;;;;;;;;;;5093588;28;20035;-64
2021/05/14 01:28:41;;;;;;;18.90;11.98;;;;;;;;;;5092130;28;20074;-65
2021/05/14 01:31:07;;;;;;;18.02;11.75;;;;;;;;;;5093735;28;20032;-64
2021/05/14 01:33:34;;;;;;;22.10;13.13;;;;;;;;;;5092484;28;20035;-65
2021/05/14 01:36:01;;;;;;;17.10;12.48;;;;;;;;;;5094183;28;20119;-65
2021/05/14 01:38:27;;;;;;;15.45;10.75;;;;;;;;;;5091967;28;20082;-65
2021/05/14 01:40:53;;;;;;;21.10;12.27;;;;;;;;;;5087948;28;20047;-64
2021/05/14 01:43:20;;;;;;;18.67;11.95;;;;;;;;;;5092734;28;20028;-64
2021/05/14 01:45:46;;;;;;;18.63;12.23;;;;;;;;;;5093549;28;20475;-65
2021/05/14 01:48:12;;;;;;;19.13;12.45;;;;;;;;;;5091884;28;20028;-65
2021/05/14 01:50:38;;;;;;;25.10;14.38;;;;;;;;;;5081640;28;20059;-64
2021/05/14 01:53:04;;;;;;;23.70;14.10;;;;;;;;;;5074651;28;20403;-64
2021/05/14 01:55:30;;;;;;;21.15;13.50;;;;;;;;;;5093205;28;20039;-64
2021/05/14 01:57:56;;;;;;;23.45;12.18;;;;;;;;;;5091931;28;20028;-64
2021/05/14 02:00:22;;;;;;;21.52;13.52;;;;;;;;;;5092607;28;20536;-64
2021/05/14 02:02:49;;;;;;;24.52;13.75;;;;;;;;;;5092124;28;20494;-64
2021/05/14 02:05:15;;;;;;;22.13;14.05;;;;;;;;;;5092601;28;20234;-64
2021/05/14 02:07:41;;;;;;;21.77;13.30;;;;;;;;;;5073084;28;20063;-65
2021/05/14 02:10:08;;;;;;;18.60;12.35;;;;;;;;;;5092663;28;20063;-65
2021/05/14 02:12:34;;;;;;;20.90;12.73;;;;;;;;;;5092482;28;20020;-65
2021/05/14 02:15:00;;;;;;;22.48;12.10;;;;;;;;;;5092632;28;20024;-65
2021/05/14 02:17:26;;;;;;;19.52;11.32;;;;;;;;;;5090905;28;20028;-65
2021/05/14 02:19:54;;;;;;;20.45;12.88;;;;;;;;;;5090386;28;20027;-65
2021/05/14 02:22:20;;;;;;;20.17;13.02;;;;;;;;;;5092528;28;20024;-64
2021/05/14 02:24:46;;;;;;;21.08;12.55;;;;;;;;;;5073520;28;20028;-64
2021/05/14 02:27:12;;;;;;;21.90;12.60;;;;;;;;;;5091055;28;20024;-64
2021/05/14 02:29:39;;;;;;;21.25;12.73;;;;;;;;;;5092135;28;20020;-64
2021/05/14 02:32:05;;;;;;;19.75;11.85;;;;;;;;;;5092717;28;20048;-64
2021/05/14 02:34:32;;;;;;;20.50;12.00;;;;;;;;;;5092174;28;20028;-64
2021/05/14 02:36:58;;;;;;;20.00;12.60;;;;;;;;;;5090479;28;20024;-64
2021/05/14 02:39:24;;;;;;;20.77;12.05;;;;;;;;;;5090490;28;20537;-64
2021/05/14 02:41:51;;;;;;;24.23;13.10;;;;;;;;;;5074270;28;20032;-65
2021/05/14 02:44:17;;;;;;;21.27;12.50;;;;;;;;;;5092079;28;20040;-65
2021/05/14 02:46:43;;;;;;;19.98;12.13;;;;;;;;;;5088983;28;20024;-64
2021/05/14 02:49:10;;;;;;;19.35;11.50;;;;;;;;;;5085794;28;20043;-65
2021/05/14 02:51:36;;;;;;;21.85;12.70;;;;;;;;;;5091804;28;20032;-65
2021/05/14 02:54:02;;;;;;;24.08;14.18;;;;;;;;;;5083853;28;20040;-64
2021/05/14 02:56:29;;;;;;;23.08;13.15;;;;;;;;;;5092248;28;20020;-64
2021/05/14 02:58:55;;;;;;;26.92;14.13;;;;;;;;;;5090541;28;20024;-65
2021/05/14 03:01:21;;;;;;;25.15;13.50;;;;;;;;;;5091582;28;20119;-65
2021/05/14 03:03:47;;;;;;;28.70;15.50;;;;;;;;;;5073140;28;20028;-65
2021/05/14 03:06:13;;;;;;;26.67;13.68;;;;;;;;;;5091478;28;20035;-65
2021/05/14 03:08:39;;;;;;;29.08;15.52;;;;;;;;;;5090013;28;20043;-64
2021/05/14 03:11:06;;;;;;;25.73;14.63;;;;;;;;;;5091080;28;20028;-65
2021/05/14 03:13:32;;;;;;;29.05;15.73;;;;;;;;;;5073155;28;20024;-65
2021/05/14 03:15:58;;;;;;;34.33;16.35;;;;;;;;;;5091076;28;20011;-64
2021/05/14 03:18:24;;;;;;;31.48;16.23;;;;;;;;;;5089720;28;20025;-64
2021/05/14 03:20:50;;;;;;;43.75;18.90;;;;;;;;;;5090720;28;20051;-65
2021/05/14 03:23:17;;;;;;;54.30;20.88;;;;;;;;;;5090830;28;20020;-65
2021/05/14 03:25:43;;;;;;;40.67;19.92;;;;;;;;;;5085982;28;20043;-65
2021/05/14 03:28:09;;;;;;;42.85;21.05;;;;;;;;;;5072060;28;20035;-65
2021/05/14 03:30:35;;;;;;;45.00;20.73;;;;;;;;;;5090533;28;20066;-65
2021/05/14 03:33:01;;;;;;;41.13;21.48;;;;;;;;;;5091316;28;20024;-64
2021/05/14 03:35:28;;;;;;;45.17;22.00;;;;;;;;;;5091606;28;20095;-65
2021/05/14 03:37:54;;;;;;;50.75;22.88;;;;;;;;;;5088848;28;20036;-64
2021/05/14 03:42:52;;;;;;;48.67;21.60;;;;;;;;;;5091069;28;20032;-65
2021/05/14 03:45:18;;;;;;;49.15;22.77;;;;;;;;;;5090695;28;20092;-65
2021/05/14 03:47:44;;;;;;;51.78;24.55;;;;;;;;;;5089977;28;20031;-64
2021/05/14 03:50:10;;;;;;;51.33;24.00;;;;;;;;;;5067307;28;20043;-65
2021/05/14 03:52:36;;;;;;;50.75;24.15;;;;;;;;;;5090872;28;20439;-65
2021/05/14 03:55:03;;;;;;;53.05;24.25;;;;;;;;;;5078401;28;20491;-65
2021/05/14 03:57:29;;;;;;;44.60;23.17;;;;;;;;;;5071492;28;20024;-65
2021/05/14 03:59:55;;;;;;;48.53;23.30;;;;;;;;;;5062166;28;20016;-65
2021/05/14 04:02:21;;;;;;;41.25;22.40;;;;;;;;;;5073703;28;20013;-65
2021/05/14 04:04:47;;;;;;;39.97;21.75;;;;;;;;;;5088841;28;20024;-65
2021/05/14 04:07:13;;;;;;;34.95;19.50;;;;;;;;;;5088576;28;20027;-65
2021/05/14 04:09:47;;;;;;;35.40;19.08;;;;;;;;;;5090439;28;20042;-64
2021/05/14 04:14:42;;;;;;;33.10;18.80;;;;;;;;;;5090739;28;20036;-65
2021/05/14 04:17:08;;;;;;;32.15;18.65;;;;;;;;;;5070514;28;20067;-65
2021/05/14 04:19:34;;;;;;;33.65;20.52;;;;;;;;;;5089322;28;20089;-65
2021/05/14 04:22:03;;;;;;;29.25;17.58;;;;;;;;;;5090388;28;20548;-65
2021/05/14 04:24:29;;;;;;;29.20;18.50;;;;;;;;;;5090316;28;20118;-65
2021/05/14 04:26:56;;;;;;;30.45;18.02;;;;;;;;;;5089141;28;20038;-65
2021/05/14 04:29:23;;;;;;;31.25;18.33;;;;;;;;;;5090071;28;20093;-65
2021/05/14 04:31:49;;;;;;;33.17;18.95;;;;;;;;;;5090776;28;20028;-65
2021/05/14 04:34:16;;;;;;;33.25;19.23;;;;;;;;;;5090350;28;20024;-65
2021/05/14 04:36:42;;;;;;;32.95;18.23;;;;;;;;;;5089739;28;20024;-65
2021/05/14 04:39:09;;;;;;;31.90;18.88;;;;;;;;;;5088879;28;20503;-65
2021/05/14 04:41:36;;;;;;;31.13;18.80;;;;;;;;;;5084448;28;20032;-65
2021/05/14 04:44:02;;;;;;;38.63;21.98;;;;;;;;;;5070403;28;20028;-65
2021/05/14 04:46:28;;;;;;;40.78;21.85;;;;;;;;;;5090010;28;20024;-65
2021/05/14 04:48:54;;;;;;;42.13;22.95;;;;;;;;;;5084878;28;20415;-65
2021/05/14 04:51:21;;;;;;;31.38;18.45;;;;;;;;;;5072551;28;20032;-65
2021/05/14 04:53:48;;;;;;;31.02;17.52;;;;;;;;;;5094097;28;20031;-65
2021/05/14 04:56:15;;;;;;;32.53;19.33;;;;;;;;;;5075957;28;20119;-65
2021/05/14 04:58:41;;;;;;;36.28;19.05;;;;;;;;;;5092591;28;20036;-65
2021/05/14 05:01:08;;;;;;;37.85;20.27;;;;;;;;;;5087556;28;20044;-65
2021/05/14 05:03:35;;;;;;;36.85;21.83;;;;;;;;;;5093122;28;20509;-65
2021/05/14 05:06:04;;;;;;;44.63;24.30;;;;;;;;;;5089614;28;20024;-65
2021/05/14 05:08:30;;;;;;;42.45;24.60;;;;;;;;;;5089886;28;20115;-65
2021/05/14 05:10:56;;;;;;;42.25;22.55;;;;;;;;;;5071763;28;20127;-65
2021/05/14 05:13:22;;;;;;;37.78;22.35;;;;;;;;;;5092890;28;20032;-65
2021/05/14 05:15:48;;;;;;;33.85;21.23;;;;;;;;;;5094121;28;20016;-65
2021/05/14 05:18:14;;;;;;;34.50;19.23;;;;;;;;;;5092789;28;20111;-65
2021/05/14 05:20:40;;;;;;;32.05;19.67;;;;;;;;;;5075139;28;20550;-65
2021/05/14 05:23:06;;;;;;;38.17;20.70;;;;;;;;;;5093458;28;20016;-65
2021/05/14 05:25:33;;;;;;;35.33;19.50;;;;;;;;;;5093900;28;20411;-65
2021/05/14 05:27:59;;;;;;;34.90;20.02;;;;;;;;;;5091962;28;20027;-65
2021/05/14 05:30:25;;;;;;;37.53;19.83;;;;;;;;;;5093323;28;20070;-65
2021/05/14 05:32:51;;;;;;;35.05;19.30;;;;;;;;;;5094010;28;20046;-65
2021/05/14 05:35:18;;;;;;;31.80;19.75;;;;;;;;;;5092462;28;20036;-65
2021/05/14 05:37:44;;;;;;;33.20;20.10;;;;;;;;;;5092022;28;20032;-65
2021/05/14 05:40:10;;;;;;;32.22;20.30;;;;;;;;;;5074797;28;20024;-65
2021/05/14 05:42:36;;;;;;;30.95;18.55;;;;;;;;;;5093375;28;20107;-65
2021/05/14 05:45:03;;;;;;;31.25;18.83;;;;;;;;;;5093377;28;20028;-65
2021/05/14 05:47:31;;;;;;;34.97;20.73;;;;;;;;;;5092102;28;20020;-65
2021/05/14 05:49:57;;;;;;;33.42;19.60;;;;;;;;;;5092590;28;20020;-65
2021/05/14 05:52:23;;;;;;;38.08;22.25;;;;;;;;;;5089814;28;20035;-65
2021/05/14 05:54:50;;;;;;;31.08;20.58;;;;;;;;;;5083028;28;20042;-65
2021/05/14 05:57:16;;;;;;;36.65;21.08;;;;;;;;;;5085348;28;20052;-65
2021/05/14 05:59:42;;;;;;;30.15;19.67;;;;;;;;;;5083556;28;20059;-65
2021/05/14 06:02:08;;;;;;;38.17;22.17;;;;;;;;;;5090209;28;20044;-65
2021/05/14 06:04:34;;;;;;;37.92;20.65;;;;;;;;;;5074987;28;20032;-65
2021/05/14 06:07:00;;;;;;;32.83;21.23;;;;;;;;;;5089218;28;20462;-65
2021/05/14 06:09:26;;;;;;;45.30;24.23;;;;;;;;;;5092640;28;20115;-65
2021/05/14 06:11:53;;;;;;;38.10;23.90;;;;;;;;;;5091157;28;20502;-65
2021/05/14 06:14:19;;;;;;;39.72;23.92;;;;;;;;;;5090338;28;20032;-65
2021/05/14 06:16:45;;;;;;;46.40;25.67;;;;;;;;;;5091521;28;20024;-65
2021/05/14 06:19:15;;;;;;;40.92;25.67;;;;;;;;;;5092014;28;20034;-65
2021/05/14 06:21:47;;;;;;;52.17;26.45;;;;;;;;;;5090812;28;20022;-65
2021/05/14 06:24:13;;;;;;;39.08;21.85;;;;;;;;;;5090226;28;20035;-65
2021/05/14 06:26:40;;;;;;;48.72;26.98;;;;;;;;;;5086351;28;20519;-65
2021/05/14 06:29:06;;;;;;;40.20;22.13;;;;;;;;;;5091777;28;20028;-65
2021/05/14 06:31:32;;;;;;;43.90;22.75;;;;;;;;;;5091937;28;20414;-65
2021/05/14 06:33:58;;;;;;;42.95;22.90;;;;;;;;;;5092590;28;20067;-65
2021/05/14 06:36:24;;;;;;;33.85;18.75;;;;;;;;;;5092443;28;20031;-65
2021/05/14 06:38:50;;;;;;;36.10;19.13;;;;;;;;;;5091006;28;20016;-65
2021/05/14 06:41:16;;;;;;;52.75;22.88;;;;;;;;;;5086318;28;20395;-65
2021/05/14 06:43:42;;;;;;;39.58;20.38;;;;;;;;;;5089685;28;20035;-65
2021/05/14 06:46:08;;;;;;;44.25;22.27;;;;;;;;;;5084397;28;20077;-65
2021/05/14 06:48:34;;;;;;;42.65;20.80;;;;;;;;;;5080080;28;20043;-65
2021/05/14 06:51:01;;;;;;;40.72;22.95;;;;;;;;;;5070358;28;20114;-65
2021/05/14 06:53:27;;;;;;;39.78;21.30;;;;;;;;;;5091489;28;20098;-65
2021/05/14 06:55:54;;;;;;;41.42;22.77;;;;;;;;;;5090059;28;20020;-64
2021/05/14 06:58:20;;;;;;;42.10;21.02;;;;;;;;;;5084511;28;20044;-65
2021/05/14 07:00:46;;;;;;;42.58;22.90;;;;;;;;;;5084867;28;20133;-65
2021/05/14 07:03:12;;;;;;;40.67;22.33;;;;;;;;;;5088683;28;20036;-65
2021/05/14 07:05:38;;;;;;;34.47;20.20;;;;;;;;;;5068706;28;20502;-65
2021/05/14 07:08:05;;;;;;;29.55;17.15;;;;;;;;;;5081885;28;20024;-64
2021/05/14 07:10:31;;;;;;;29.63;17.00;;;;;;;;;;5081820;28;20036;-65
2021/05/14 07:12:57;;;;;;;27.60;16.60;;;;;;;;;;5088910;28;20020;-65
2021/05/14 07:15:23;;;;;;;26.70;15.18;;;;;;;;;;5084291;28;20016;-65
2021/05/14 07:17:49;;;;;;;25.38;15.38;;;;;;;;;;5086534;28;20020;-65
2021/05/14 07:20:16;;;;;;;28.20;15.23;;;;;;;;;;5083384;28;20032;-65
2021/05/14 07:22:42;;;;;;;26.25;15.15;;;;;;;;;;5077647;28;20099;-65
2021/05/14 07:25:08;;;;;;;27.13;14.88;;;;;;;;;;5079858;28;20021;-64
2021/05/14 07:27:34;;;;;;;22.30;13.68;;;;;;;;;;5082498;28;20107;-65
2021/05/14 07:30:01;;;;;;;22.27;12.55;;;;;;;;;;5079148;28;20078;-65
2021/05/14 07:32:27;;;;;;;25.83;14.75;;;;;;;;;;5080103;28;20020;-64
2021/05/14 07:34:54;;;;;;;25.17;13.82;;;;;;;;;;5082356;28;20028;-65
2021/05/14 07:37:21;;;;;;;22.88;13.98;;;;;;;;;;5079796;28;20107;-65
2021/05/14 07:39:47;;;;;;;23.85;13.95;;;;;;;;;;5083688;28;20024;-64
2021/05/14 07:42:13;;;;;;;26.25;14.95;;;;;;;;;;5087257;28;20483;-64
2021/05/14 07:44:39;;;;;;;26.00;14.43;;;;;;;;;;5087227;28;20028;-64
2021/05/14 07:47:05;;;;;;;21.85;13.93;;;;;;;;;;5081089;28;20023;-65
2021/05/14 07:49:32;;;;;;;26.23;13.38;;;;;;;;;;5089250;28;20035;-65
2021/05/14 07:51:58;;;;;;;23.33;14.00;;;;;;;;;;5085515;28;20036;-65
2021/05/14 07:54:24;;;;;;;27.60;16.27;;;;;;;;;;5076843;28;20523;-64
2021/05/14 07:56:50;;;;;;;24.65;14.63;;;;;;;;;;5060844;28;20051;-64
2021/05/14 07:59:16;;;;;;;25.00;14.30;;;;;;;;;;5077288;28;20024;-64
2021/05/14 08:01:42;;;;;;;20.67;12.38;;;;;;;;;;5083019;28;20051;-65
2021/05/14 08:04:08;;;;;;;20.75;12.10;;;;;;;;;;5083305;28;20058;-65
2021/05/14 08:06:35;;;;;;;23.15;13.02;;;;;;;;;;5084170;28;20062;-64
2021/05/14 08:09:03;;;;;;;23.20;12.48;;;;;;;;;;5084362;28;20334;-65
2021/05/14 08:11:29;;;;;;;23.42;12.38;;;;;;;;;;5085979;28;20030;-64
2021/05/14 08:13:55;;;;;;;25.67;14.68;;;;;;;;;;5083410;28;20116;-66
2021/05/14 08:16:21;;;;;;;23.55;14.13;;;;;;;;;;5081234;28;21155;-64
2021/05/14 08:18:47;;;;;;;24.15;13.65;;;;;;;;;;5086836;28;20042;-64
2021/05/14 08:21:13;;;;;;;23.60;12.52;;;;;;;;;;5089529;28;20039;-65
2021/05/14 08:23:39;;;;;;;21.25;13.48;;;;;;;;;;5087288;28;20024;-65
2021/05/14 08:26:05;;;;;;;25.33;14.45;;;;;;;;;;5071278;28;20099;-65
2021/05/14 08:28:31;;;;;;;22.65;12.63;;;;;;;;;;5084670;28;20031;-65
2021/05/14 08:30:57;;;;;;;22.27;12.90;;;;;;;;;;5086731;28;20490;-64
2021/05/14 08:33:24;;;;;;;20.20;12.75;;;;;;;;;;5087835;28;20449;-65
2021/05/14 08:35:50;;;;;;;24.38;13.82;;;;;;;;;;5086143;28;20020;-65
2021/05/14 08:38:16;;;;;;;23.13;14.07;;;;;;;;;;5084929;28;20032;-64
2021/05/14 08:40:42;;;;;;;22.88;12.38;;;;;;;;;;5065247;28;20032;-65
2021/05/14 08:43:11;;;;;;;24.08;13.75;;;;;;;;;;5069775;28;20040;-64
2021/05/14 08:45:38;;;;;;;28.02;14.25;;;;;;;;;;5087782;28;20031;-65
2021/05/14 08:48:05;;;;;;;24.52;14.13;;;;;;;;;;5082387;28;20519;-65
2021/05/14 08:50:31;;;;;;;25.85;15.02;;;;;;;;;;5087277;28;20056;-65
2021/05/14 08:52:57;;;;;;;31.42;16.77;;;;;;;;;;5082794;28;20562;-64
2021/05/14 08:55:24;;;;;;;32.20;18.88;;;;;;;;;;5082306;28;20047;-65
2021/05/14 08:57:50;;;;;;;32.35;17.77;;;;;;;;;;5079697;28;20063;-65
2021/05/14 09:00:17;;;;;;;30.92;17.50;;;;;;;;;;5062886;28;20023;-66
2021/05/14 09:02:43;;;;;;;38.15;20.85;;;;;;;;;;5089421;28;20039;-65
2021/05/14 09:05:29;;;;;;;39.22;22.15;;;;;;;;;;5073832;28;20039;-66
2021/05/14 09:07:56;;;;;;;37.90;20.73;;;;;;;;;;5080417;28;20013;-66
2021/05/14 09:10:22;;;;;;;44.08;23.15;;;;;;;;;;5078738;28;20040;-65
2021/05/14 09:12:49;;;;;;;38.53;21.85;;;;;;;;;;5088718;28;20012;-65
2021/05/14 09:15:35;;;;;;;37.88;22.17;;;;;;;;;;5087743;28;20270;-65
2021/05/14 09:18:01;;;;;;;36.67;21.92;;;;;;;;;;5082654;28;20491;-66
2021/05/14 09:20:36;;;;;;;37.53;22.02;;;;;;;;;;5086864;28;20372;-66
2021/05/14 09:23:22;;;;;;;42.80;22.48;;;;;;;;;;5078757;28;20028;-66
2021/05/14 09:25:56;;;;;;;48.22;25.20;;;;;;;;;;5086100;28;20526;-66
2021/05/14 09:28:29;;;;;;;51.05;27.95;;;;;;;;;;5082506;28;20024;-66
2021/05/14 09:31:04;;;;;;;51.35;26.55;;;;;;;;;;5081564;28;20038;-66
2021/05/14 09:33:31;;;;;;;55.65;28.95;;;;;;;;;;5084855;28;20047;-66
2021/05/14 09:35:59;;;;;;;65.45;29.88;;;;;;;;;;5085598;28;20069;-66
2021/05/14 09:38:25;;;;;;;62.25;31.30;;;;;;;;;;5084584;28;20028;-66
2021/05/14 09:40:52;;;;;;;56.17;31.35;;;;;;;;;;5083108;28;20232;-66
2021/05/14 09:43:19;;;;;;;58.58;30.63;;;;;;;;;;5088735;28;20031;-66
2021/05/14 09:45:46;;;;;;;62.42;29.65;;;;;;;;;;5084389;28;20032;-65
2021/05/14 09:48:15;;;;;;;61.30;30.90;;;;;;;;;;5085192;28;20287;-66
2021/05/14 09:50:42;;;;;;;54.28;28.67;;;;;;;;;;5087505;28;20507;-66
2021/05/14 09:53:10;;;;;;;67.45;31.05;;;;;;;;;;5089482;28;20020;-66
2021/05/14 09:55:38;;;;;;;60.55;29.50;;;;;;;;;;5085591;28;20066;-66
2021/05/14 09:58:12;;;;;;;61.30;30.95;;;;;;;;;;5064831;28;20379;-67
2021/05/14 10:00:38;;;;;;;55.65;30.27;;;;;;;;;;5086168;28;20087;-67
2021/05/14 10:03:06;;;;;;;54.25;28.60;;;;;;;;;;5084645;28;20035;-66
2021/05/14 10:05:32;;;;;;;62.83;30.45;;;;;;;;;;5071986;28;20526;-64
2021/05/14 10:08:03;;;;;;;66.03;32.53;;;;;;;;;;5085735;28;20074;-65
2021/05/14 10:10:30;;;;;;;69.85;34.83;;;;;;;;;;5087912;28;20098;-65
2021/05/14 10:12:57;;;;;;;66.60;34.80;;;;;;;;;;5072698;28;20440;-64
2021/05/14 10:15:24;;;;;;;61.05;31.73;;;;;;;;;;5086003;28;20028;-64
2021/05/14 10:17:51;;;;;;;66.72;33.60;;;;;;;;;;5087095;28;20020;-65
2021/05/14 10:20:18;;;;;;;69.57;34.97;;;;;;;;;;5091277;28;20022;-65
2021/05/14 10:22:45;;;;;;;62.08;34.10;;;;;;;;;;5085375;28;20051;-65
2021/05/14 10:25:14;;;;;;;66.70;34.17;;;;;;;;;;5079862;28;20026;-65
2021/05/14 10:27:41;;;;;;;56.20;33.22;;;;;;;;;;5087080;28;20178;-65
2021/05/14 10:30:08;;;;;;;51.88;29.13;;;;;;;;;;5087322;28;20073;-66
2021/05/14 10:32:37;;;;;;;58.25;32.20;;;;;;;;;;5090001;28;20043;-65
2021/05/14 10:35:07;;;;;;;60.83;32.03;;;;;;;;;;5086353;28;20036;-65
2021/05/14 10:37:54;;;;;;;59.72;31.20;;;;;;;;;;5082308;28;20034;-65
2021/05/14 10:40:29;;;;;;;50.15;29.80;;;;;;;;;;5083274;28;20032;-64
2021/05/14 10:42:56;;;;;;;49.28;28.02;;;;;;;;;;5086300;28;20047;-64
2021/05/14 10:45:35;;;;;;;46.75;28.42;;;;;;;;;;5085584;28;20085;-66
2021/05/14 10:48:01;;;;;;;74.65;28.33;;;;;;;;;;5085823;28;20035;-64
2021/05/14 10:50:32;;;;;;;43.83;25.45;;;;;;;;;;5089083;28;20426;-65
2021/05/14 10:53:17;;;;;;;42.40;23.88;;;;;;;;;;5089560;28;20031;-65
2021/05/14 10:55:43;;;;;;;52.42;26.08;;;;;;;;;;5074523;28;20514;-64
2021/05/14 10:58:10;;;;;;;40.22;22.58;;;;;;;;;;5087928;28;20043;-66
2021/05/14 11:00:37;;;;;;;43.75;21.63;;;;;;;;;;5088393;28;20075;-64
2021/05/14 11:03:12;;;;;;;39.58;22.80;;;;;;;;;;5084327;28;20106;-67
2021/05/14 11:05:39;;;;;;;36.58;20.25;;;;;;;;;;5087746;28;20043;-66
2021/05/14 11:08:05;;;;;;;35.80;21.50;;;;;;;;;;5088292;28;20024;-65
2021/05/14 11:10:34;;;;;;;35.00;20.33;;;;;;;;;;5068539;28;20033;-65
2021/05/14 11:13:20;;;;;;;42.20;19.48;;;;;;;;;;5087769;28;20038;-66
2021/05/14 11:15:46;;;;;;;39.75;19.92;;;;;;;;;;5087159;28;20051;-65
2021/05/14 11:18:15;;;;;;;42.85;20.52;;;;;;;;;;5088314;28;20030;-65
2021/05/14 11:20:45;;;;;;;39.97;19.40;;;;;;;;;;5088635;28;21144;-66
2021/05/14 11:23:29;;;;;;;37.40;18.15;;;;;;;;;;5070142;28;20027;-65
2021/05/14 11:25:56;;;;;;;36.15;18.25;;;;;;;;;;5087812;28;20098;-66
2021/05/14 11:28:38;;;;;;;25.98;15.40;;;;;;;;;;5084444;28;20034;-66
2021/05/14 11:31:04;;;;;;;29.10;15.43;;;;;;;;;;5088683;28;20035;-66
2021/05/14 11:33:30;;;;;;;25.85;14.32;;;;;;;;;;5087425;28;20031;-66
2021/05/14 11:35:56;;;;;;;23.95;13.57;;;;;;;;;;5085645;28;20047;-66
2021/05/14 11:38:22;;;;;;;23.13;12.63;;;;;;;;;;5086551;28;20031;-65
2021/05/14 11:40:50;;;;;;;23.00;11.93;;;;;;;;;;5087972;28;20028;-65
2021/05/14 11:43:16;;;;;;;19.50;11.80;;;;;;;;;;5088048;28;20027;-66
2021/05/14 11:45:43;;;;;;;58.17;15.63;;;;;;;;;;5088895;28;20077;-65
2021/05/14 11:48:10;;;;;;;22.15;11.40;;;;;;;;;;5069404;28;20074;-66
2021/05/14 11:50:37;;;;;;;37.33;14.65;;;;;;;;;;5089629;28;20063;-66
2021/05/14 11:53:05;;;;;;;41.67;15.23;;;;;;;;;;5090413;28;20024;-66
2021/05/14 11:55:31;;;;;;;58.55;18.67;;;;;;;;;;5087997;28;20038;-66
2021/05/14 11:57:58;;;;;;;18.25;12.13;;;;;;;;;;5086020;28;20483;-66
2021/05/14 12:00:32;;;;;;;22.60;11.63;;;;;;;;;;5086916;28;20546;-66
2021/05/14 12:02:59;;;;;;;21.33;12.15;;;;;;;;;;5078896;28;20468;-66
2021/05/14 12:05:25;;;;;;;17.52;10.98;;;;;;;;;;5081524;28;20021;-66
2021/05/14 12:07:52;;;;;;;20.60;9.68;;;;;;;;;;5081964;28;20024;-65
2021/05/14 12:10:18;;;;;;;15.52;10.07;;;;;;;;;;5069835;28;20016;-66
2021/05/14 12:12:45;;;;;;;22.50;11.25;;;;;;;;;;5086082;28;20031;-66
2021/05/14 12:15:11;;;;;;;23.83;12.25;;;;;;;;;;5085154;28;20068;-67
2021/05/14 12:17:38;;;;;;;18.73;10.63;;;;;;;;;;5082279;28;20028;-65
2021/05/14 12:20:23;;;;;;;16.25;9.75;;;;;;;;;;5084092;28;20028;-66
2021/05/14 12:22:50;;;;;;;17.05;10.15;;;;;;;;;;5084070;28;20121;-68
2021/05/14 12:25:16;;;;;;;18.98;11.80;;;;;;;;;;5081801;28;20047;-67
2021/05/14 12:27:43;;;;;;;22.75;11.68;;;;;;;;;;5077043;28;20550;-67
2021/05/14 12:30:10;;;;;;;20.35;10.05;;;;;;;;;;5081232;28;20021;-67
2021/05/14 12:32:39;;;;;;;18.65;12.02;;;;;;;;;;5080342;28;20545;-67
2021/05/14 12:35:06;;;;;;;21.80;11.10;;;;;;;;;;5085142;28;20017;-69
2021/05/14 12:37:32;;;;;;;21.00;10.85;;;;;;;;;;5079559;28;20024;-67
2021/05/14 12:39:58;;;;;;;15.65;10.20;;;;;;;;;;5083778;28;20032;-69
2021/05/14 12:42:25;;;;;;;20.00;10.25;;;;;;;;;;5076618;28;20032;-69
2021/05/14 12:44:52;;;;;;;20.92;10.88;;;;;;;;;;5085747;28;20024;-68
2021/05/14 12:47:21;;;;;;;19.60;11.02;;;;;;;;;;5060526;28;20068;-66
2021/05/14 12:49:47;;;;;;;37.22;12.30;;;;;;;;;;5067486;28;20024;-68
2021/05/14 12:52:14;;;;;;;36.33;12.80;;;;;;;;;;5082999;28;20036;-66
2021/05/14 12:54:51;;;;;;;14.85;8.02;;;;;;;;;;5060989;28;20443;-67
2021/05/14 12:57:24;;;;;;;21.17;9.88;;;;;;;;;;5071522;28;20016;-68
2021/05/14 12:59:51;;;;;;;34.83;10.77;;;;;;;;;;5083810;28;20020;-68
2021/05/14 13:02:21;;;;;;;18.65;10.02;;;;;;;;;;5080575;28;20385;-67
2021/05/14 13:04:55;;;;;;;16.27;8.95;;;;;;;;;;5078741;28;20124;-67
2021/05/14 13:07:21;;;;;;;19.02;8.85;;;;;;;;;;5075252;28;20024;-68
2021/05/14 13:09:50;;;;;;;16.45;7.70;;;;;;;;;;5078917;28;20035;-67
2021/05/14 13:12:17;;;;;;;14.10;8.10;;;;;;;;;;5081731;28;20611;-69
2021/05/14 13:14:43;;;;;;;17.05;8.38;;;;;;;;;;5083461;28;20036;-68
2021/05/14 13:17:09;;;;;;;12.18;7.32;;;;;;;;;;5077509;28;20027;-68
2021/05/14 13:19:35;;;;;;;13.02;6.88;;;;;;;;;;5076916;28;20024;-68
2021/05/14 13:22:01;;;;;;;11.80;6.70;;;;;;;;;;5082802;28;20028;-68
2021/05/14 13:24:27;;;;;;;17.55;7.80;;;;;;;;;;5090534;28;20039;-67
2021/05/14 13:26:53;;;;;;;14.38;7.05;;;;;;;;;;5084244;28;20220;-67
2021/05/14 13:29:20;;;;;;;17.92;8.23;;;;;;;;;;5086181;28;20483;-67
2021/05/14 13:31:46;;;;;;;12.20;6.60;;;;;;;;;;5088848;28;20027;-68
2021/05/14 13:34:12;;;;;;;14.38;7.15;;;;;;;;;;5088053;28;20024;-70
2021/05/14 13:36:38;;;;;;;19.45;7.68;;;;;;;;;;5071923;28;20095;-71
2021/05/14 13:39:04;;;;;;;18.33;8.45;;;;;;;;;;5087991;28;20076;-68
2021/05/14 13:41:33;;;;;;;14.70;7.60;;;;;;;;;;5080673;28;20020;-68
2021/05/14 13:43:59;;;;;;;19.77;8.25;;;;;;;;;;5085757;28;20503;-68
2021/05/14 13:46:25;;;;;;;17.85;7.43;;;;;;;;;;5086131;28;20495;-69
2021/05/14 13:48:51;;;;;;;18.73;8.52;;;;;;;;;;5076848;28;20637;-69
2021/05/14 13:51:17;;;;;;;19.55;8.15;;;;;;;;;;5090198;28;20036;-69
2021/05/14 13:53:43;;;;;;;14.82;7.25;;;;;;;;;;5088424;28;20020;-67
2021/05/14 13:56:09;;;;;;;21.65;8.80;;;;;;;;;;5088381;28;20023;-67
2021/05/14 13:58:35;;;;;;;16.38;8.05;;;;;;;;;;5078882;28;20585;-68
2021/05/14 14:01:01;;;;;;;13.65;6.35;;;;;;;;;;5087573;28;20158;-68
2021/05/14 14:03:28;;;;;;;13.55;6.70;;;;;;;;;;5090955;28;20498;-68
2021/05/14 14:05:54;;;;;;;14.07;5.97;;;;;;;;;;5088873;28;20024;-66
2021/05/14 14:08:20;;;;;;;10.30;5.75;;;;;;;;;;5084448;28;20032;-68
2021/05/14 14:10:46;;;;;;;15.23;6.70;;;;;;;;;;5088810;28;20028;-68
2021/05/14 14:13:13;;;;;;;11.25;5.75;;;;;;;;;;5068419;28;20115;-68
2021/05/14 14:15:39;;;;;;;15.93;7.45;;;;;;;;;;5081856;28;20020;-69
2021/05/14 14:18:05;;;;;;;15.27;7.38;;;;;;;;;;5082233;28;20506;-70
2021/05/14 14:20:32;;;;;;;13.77;6.53;;;;;;;;;;5072991;28;20031;-67
2021/05/14 14:22:58;;;;;;;17.45;6.57;;;;;;;;;;5082241;28;20084;-67